Ash Grove, MO (65604)

1:08 AM CDT on September 30, 2016 (GMT -0500)
| | Change Station

Elev -9999 ft 0.00 °N, 0.00 °E | Updated

Clear
Clear
51 °F
Feels Like 51 °F
N
3
Wind Variable Wind from NNW
Gusts mph

Today
High -- | Low -- °F
--% Chance of Precip.
Yesterday
High -- | Low -- °F
Precip. -- in
Pressure 30.20 in
Visibility 10.0 miles
Clouds Clear
Dew Point 48 °F
Humidity 89%
Rainfall --
Snow Depth Not available.
7:09 AM 6:58 PM
Waning Crescent, 1% visible
METAR KSGF 300552Z 31005KT 10SM CLR 12/08 A3022 RMK AO2 SLP227 T01170083 10178 20117 402280083 58010
Pressure 30.20 in
Visibility 10.0 miles
Clouds Clear
Dew Point 48 °F
Humidity 89%
Rainfall --
Snow Depth Not available.
7:09 AM 6:58 PM
Waning Crescent, 1% visible
METAR KSGF 300552Z 31005KT 10SM CLR 12/08 A3022 RMK AO2 SLP227 T01170083 10178 20117 402280083 58010

10-Day Weather Forecast

Almanac

Astronomy

Sep. 30, 2016 Rise Set
Actual Time
Civil Twilight
Nautical Twilight
Astronomical Twilight
Moon
Length of Visible Light
Length of Day
Tomorrow will be .
, % of the Moon is Illuminated

Today's Extremes

State Highs State Lows

Community

WunderPhotos

Upload Photos

1,942,669 photos uploaded!

WunderBlog® & News

Nearby

Air Quality

  Air Quality AQ Index Pollutant
Not available.

Snow Depth

Station Depth Elevation

Earthquake Activity

City Distance Mag. Time & Date
Minimum magnitude displayed is 2.5.

Coastal Water Temperatures

Place Temperature

Stations

Nearby Weather Stations

Station Location Temp. Windchill Dew Point Humidity Wind Precip. Elev Updated Type
                   

Watches & Warnings

There are currently no watches in effect.